sensor_id;sensor_type;location;lat;lon;timestamp;temperature;humidity
27506;DHT22;14939;43.596;1.320;2023-01-29T00:01:43;2.90;99.90
27506;DHT22;14939;43.596;1.320;2023-01-29T00:04:09;2.90;99.90
27506;DHT22;14939;43.596;1.320;2023-01-29T00:06:35;2.90;99.90
27506;DHT22;14939;43.596;1.320;2023-01-29T00:09:00;2.90;99.90
27506;DHT22;14939;43.596;1.320;2023-01-29T00:11:26;2.90;99.90
27506;DHT22;14939;43.596;1.320;2023-01-29T00:13:52;2.90;99.90
27506;DHT22;14939;43.596;1.320;2023-01-29T00:16:18;2.90;99.90
27506;DHT22;14939;43.596;1.320;2023-01-29T00:18:45;2.90;99.90
27506;DHT22;14939;43.596;1.320;2023-01-29T00:21:17;2.90;99.90
27506;DHT22;14939;43.596;1.320;2023-01-29T00:23:43;2.90;99.90
27506;DHT22;14939;43.596;1.320;2023-01-29T00:26:09;2.90;99.90
27506;DHT22;14939;43.596;1.320;2023-01-29T00:28:36;2.90;99.90
27506;DHT22;14939;43.596;1.320;2023-01-29T00:31:09;2.90;99.90
27506;DHT22;14939;43.596;1.320;2023-01-29T00:33:35;2.80;99.90
27506;DHT22;14939;43.596;1.320;2023-01-29T00:36:03;2.80;99.90
27506;DHT22;14939;43.596;1.320;2023-01-29T00:38:29;2.80;99.90
27506;DHT22;14939;43.596;1.320;2023-01-29T00:40:55;2.80;99.90
27506;DHT22;14939;43.596;1.320;2023-01-29T00:43:39;2.80;99.90
27506;DHT22;14939;43.596;1.320;2023-01-29T00:46:23;2.80;99.90
27506;DHT22;14939;43.596;1.320;2023-01-29T00:48:49;2.80;99.90
27506;DHT22;14939;43.596;1.320;2023-01-29T00:51:14;2.80;99.90
27506;DHT22;14939;43.596;1.320;2023-01-29T00:53:40;2.80;99.90
27506;DHT22;14939;43.596;1.320;2023-01-29T00:56:06;2.80;99.90
27506;DHT22;14939;43.596;1.320;2023-01-29T00:58:31;2.80;99.90
27506;DHT22;14939;43.596;1.320;2023-01-29T01:01:01;2.80;99.90
27506;DHT22;14939;43.596;1.320;2023-01-29T01:03:28;2.70;99.90
27506;DHT22;14939;43.596;1.320;2023-01-29T01:06:08;2.70;99.90
27506;DHT22;14939;43.596;1.320;2023-01-29T01:08:34;2.70;99.90
27506;DHT22;14939;43.596;1.320;2023-01-29T01:11:18;2.70;99.90
27506;DHT22;14939;43.596;1.320;2023-01-29T01:13:44;2.70;99.90
27506;DHT22;14939;43.596;1.320;2023-01-29T01:16:15;2.70;99.90
27506;DHT22;14939;43.596;1.320;2023-01-29T01:18:42;2.70;99.90
27506;DHT22;14939;43.596;1.320;2023-01-29T01:21:08;2.70;99.90
27506;DHT22;14939;43.596;1.320;2023-01-29T01:23:35;2.70;99.90
27506;DHT22;14939;43.596;1.320;2023-01-29T01:26:01;2.70;99.90
27506;DHT22;14939;43.596;1.320;2023-01-29T01:28:27;2.70;99.90
27506;DHT22;14939;43.596;1.320;2023-01-29T01:30:53;2.70;99.90
27506;DHT22;14939;43.596;1.320;2023-01-29T01:33:19;2.70;99.90
27506;DHT22;14939;43.596;1.320;2023-01-29T01:35:44;2.70;99.90
27506;DHT22;14939;43.596;1.320;2023-01-29T01:38:10;2.70;99.90
27506;DHT22;14939;43.596;1.320;2023-01-29T01:40:36;2.70;99.90
27506;DHT22;14939;43.596;1.320;2023-01-29T01:43:02;2.70;99.90
27506;DHT22;14939;43.596;1.320;2023-01-29T01:45:35;2.70;99.90
27506;DHT22;14939;43.596;1.320;2023-01-29T01:48:19;2.70;99.90
27506;DHT22;14939;43.596;1.320;2023-01-29T01:50:53;2.70;99.90
27506;DHT22;14939;43.596;1.320;2023-01-29T01:53:40;2.70;99.90
27506;DHT22;14939;43.596;1.320;2023-01-29T01:56:12;2.70;99.90
27506;DHT22;14939;43.596;1.320;2023-01-29T01:58:46;2.70;99.90
27506;DHT22;14939;43.596;1.320;2023-01-29T02:01:14;2.70;99.90
27506;DHT22;14939;43.596;1.320;2023-01-29T02:03:52;2.70;99.90
27506;DHT22;14939;43.596;1.320;2023-01-29T02:06:39;2.70;99.90
27506;DHT22;14939;43.596;1.320;2023-01-29T02:09:47;2.70;99.90
27506;DHT22;14939;43.596;1.320;2023-01-29T02:12:16;2.70;99.90
27506;DHT22;14939;43.596;1.320;2023-01-29T02:14:42;2.70;99.90
27506;DHT22;14939;43.596;1.320;2023-01-29T02:17:15;2.70;99.90
27506;DHT22;14939;43.596;1.320;2023-01-29T02:20:02;2.70;99.90
27506;DHT22;14939;43.596;1.320;2023-01-29T02:33:40;2.70;99.90
27506;DHT22;14939;43.596;1.320;2023-01-29T02:36:26;2.70;99.90
27506;DHT22;14939;43.596;1.320;2023-01-29T02:44:37;2.70;99.90
27506;DHT22;14939;43.596;1.320;2023-01-29T02:47:27;2.70;99.90
27506;DHT22;14939;43.596;1.320;2023-01-29T02:53:05;2.70;99.90
27506;DHT22;14939;43.596;1.320;2023-01-29T02:55:45;2.60;99.90
27506;DHT22;14939;43.596;1.320;2023-01-29T02:58:30;2.60;99.90
27506;DHT22;14939;43.596;1.320;2023-01-29T03:01:03;2.60;99.90
27506;DHT22;14939;43.596;1.320;2023-01-29T03:03:38;2.70;99.90
27506;DHT22;14939;43.596;1.320;2023-01-29T03:06:16;2.60;99.90
27506;DHT22;14939;43.596;1.320;2023-01-29T03:09:04;2.60;99.90
27506;DHT22;14939;43.596;1.320;2023-01-29T03:11:41;2.60;99.90
27506;DHT22;14939;43.596;1.320;2023-01-29T03:14:39;2.60;99.90
27506;DHT22;14939;43.596;1.320;2023-01-29T03:17:28;2.60;99.90
27506;DHT22;14939;43.596;1.320;2023-01-29T03:19:58;2.60;99.90
27506;DHT22;14939;43.596;1.320;2023-01-29T03:22:25;2.60;99.90
27506;DHT22;14939;43.596;1.320;2023-01-29T03:24:56;2.60;99.90
27506;DHT22;14939;43.596;1.320;2023-01-29T03:27:59;2.60;99.90
27506;DHT22;14939;43.596;1.320;2023-01-29T03:30:53;2.60;99.90
27506;DHT22;14939;43.596;1.320;2023-01-29T03:33:49;2.60;99.90
27506;DHT22;14939;43.596;1.320;2023-01-29T03:36:43;2.60;99.90
27506;DHT22;14939;43.596;1.320;2023-01-29T03:39:12;2.60;99.90
27506;DHT22;14939;43.596;1.320;2023-01-29T03:42:47;2.60;99.90
27506;DHT22;14939;43.596;1.320;2023-01-29T03:47:46;2.60;99.90
27506;DHT22;14939;43.596;1.320;2023-01-29T03:50:42;2.60;99.90
27506;DHT22;14939;43.596;1.320;2023-01-29T03:59:29;2.60;99.90
27506;DHT22;14939;43.596;1.320;2023-01-29T04:01:55;2.60;99.90
27506;DHT22;14939;43.596;1.320;2023-01-29T04:04:26;2.60;99.90
27506;DHT22;14939;43.596;1.320;2023-01-29T04:06:56;2.60;99.90
27506;DHT22;14939;43.596;1.320;2023-01-29T04:09:35;2.60;99.90
27506;DHT22;14939;43.596;1.320;2023-01-29T04:12:07;2.60;99.90
27506;DHT22;14939;43.596;1.320;2023-01-29T04:14:37;2.60;99.90
27506;DHT22;14939;43.596;1.320;2023-01-29T04:17:11;2.60;99.90
27506;DHT22;14939;43.596;1.320;2023-01-29T04:19:37;2.60;99.90
27506;DHT22;14939;43.596;1.320;2023-01-29T04:22:12;2.60;99.90
27506;DHT22;14939;43.596;1.320;2023-01-29T04:24:41;2.70;99.90
27506;DHT22;14939;43.596;1.320;2023-01-29T04:27:11;2.70;99.90
27506;DHT22;14939;43.596;1.320;2023-01-29T04:33:20;2.60;99.90
27506;DHT22;14939;43.596;1.320;2023-01-29T04:41:06;2.60;99.90
27506;DHT22;14939;43.596;1.320;2023-01-29T04:46:32;2.60;99.90
27506;DHT22;14939;43.596;1.320;2023-01-29T04:49:01;2.60;99.90
27506;DHT22;14939;43.596;1.320;2023-01-29T04:51:45;2.60;99.90
27506;DHT22;14939;43.596;1.320;2023-01-29T04:58:03;2.60;99.90
27506;DHT22;14939;43.596;1.320;2023-01-29T05:02:59;2.60;99.90
27506;DHT22;14939;43.596;1.320;2023-01-29T05:05:25;2.60;99.90
27506;DHT22;14939;43.596;1.320;2023-01-29T05:07:51;2.60;99.90
27506;DHT22;14939;43.596;1.320;2023-01-29T05:10:19;2.60;99.90
27506;DHT22;14939;43.596;1.320;2023-01-29T05:12:50;2.60;99.90
27506;DHT22;14939;43.596;1.320;2023-01-29T05:15:25;2.60;99.90
27506;DHT22;14939;43.596;1.320;2023-01-29T05:17:53;2.50;99.90
27506;DHT22;14939;43.596;1.320;2023-01-29T05:20:26;2.60;99.90
27506;DHT22;14939;43.596;1.320;2023-01-29T05:22:52;2.60;99.90
27506;DHT22;14939;43.596;1.320;2023-01-29T05:25:19;2.60;99.90
27506;DHT22;14939;43.596;1.320;2023-01-29T05:27:46;2.60;99.90
27506;DHT22;14939;43.596;1.320;2023-01-29T05:30:34;2.50;99.90
27506;DHT22;14939;43.596;1.320;2023-01-29T05:33:01;2.60;99.90
27506;DHT22;14939;43.596;1.320;2023-01-29T05:35:27;2.60;99.90
27506;DHT22;14939;43.596;1.320;2023-01-29T05:37:57;2.60;99.90
27506;DHT22;14939;43.596;1.320;2023-01-29T05:40:23;2.60;99.90
27506;DHT22;14939;43.596;1.320;2023-01-29T05:42:49;2.60;99.90
27506;DHT22;14939;43.596;1.320;2023-01-29T05:45:16;2.50;99.90
27506;DHT22;14939;43.596;1.320;2023-01-29T05:47:43;2.60;99.90
27506;DHT22;14939;43.596;1.320;2023-01-29T05:50:10;2.60;99.90
27506;DHT22;14939;43.596;1.320;2023-01-29T05:52:36;2.60;99.90
27506;DHT22;14939;43.596;1.320;2023-01-29T05:55:01;2.60;99.90
27506;DHT22;14939;43.596;1.320;2023-01-29T05:57:27;2.50;99.90
27506;DHT22;14939;43.596;1.320;2023-01-29T05:59:53;2.60;99.90
27506;DHT22;14939;43.596;1.320;2023-01-29T06:02:18;2.50;99.90
27506;DHT22;14939;43.596;1.320;2023-01-29T06:04:45;2.60;99.90
27506;DHT22;14939;43.596;1.320;2023-01-29T06:07:11;2.50;99.90
27506;DHT22;14939;43.596;1.320;2023-01-29T06:09:36;2.60;99.90
27506;DHT22;14939;43.596;1.320;2023-01-29T06:12:03;2.60;99.90
27506;DHT22;14939;43.596;1.320;2023-01-29T06:14:30;2.60;99.90
27506;DHT22;14939;43.596;1.320;2023-01-29T06:16:56;2.60;99.90
27506;DHT22;14939;43.596;1.320;2023-01-29T06:19:22;2.60;99.90
27506;DHT22;14939;43.596;1.320;2023-01-29T06:21:47;2.50;99.90
27506;DHT22;14939;43.596;1.320;2023-01-29T06:24:13;2.50;99.90
27506;DHT22;14939;43.596;1.320;2023-01-29T06:26:39;2.50;99.90
27506;DHT22;14939;43.596;1.320;2023-01-29T06:29:05;2.50;99.90
27506;DHT22;14939;43.596;1.320;2023-01-29T06:31:30;2.50;99.90
27506;DHT22;14939;43.596;1.320;2023-01-29T06:33:56;2.50;99.90
27506;DHT22;14939;43.596;1.320;2023-01-29T06:36:22;2.50;99.90
27506;DHT22;14939;43.596;1.320;2023-01-29T06:38:48;2.50;99.90
27506;DHT22;14939;43.596;1.320;2023-01-29T06:41:17;2.50;99.90
27506;DHT22;14939;43.596;1.320;2023-01-29T06:43:43;2.50;99.90
27506;DHT22;14939;43.596;1.320;2023-01-29T06:46:09;2.50;99.90
27506;DHT22;14939;43.596;1.320;2023-01-29T06:48:35;2.50;99.90
27506;DHT22;14939;43.596;1.320;2023-01-29T06:51:03;2.50;99.90
27506;DHT22;14939;43.596;1.320;2023-01-29T06:53:29;2.50;99.90
27506;DHT22;14939;43.596;1.320;2023-01-29T06:55:55;2.50;99.90
27506;DHT22;14939;43.596;1.320;2023-01-29T06:58:20;2.50;99.90
27506;DHT22;14939;43.596;1.320;2023-01-29T07:00:46;2.50;99.90
27506;DHT22;14939;43.596;1.320;2023-01-29T07:03:12;2.50;99.90
27506;DHT22;14939;43.596;1.320;2023-01-29T07:05:38;2.50;99.90
27506;DHT22;14939;43.596;1.320;2023-01-29T07:08:04;2.50;99.90
27506;DHT22;14939;43.596;1.320;2023-01-29T07:10:30;2.50;99.90
27506;DHT22;14939;43.596;1.320;2023-01-29T07:12:57;2.40;99.90
27506;DHT22;14939;43.596;1.320;2023-01-29T07:15:23;2.50;99.90
27506;DHT22;14939;43.596;1.320;2023-01-29T07:18:00;2.50;99.90
27506;DHT22;14939;43.596;1.320;2023-01-29T07:20:27;2.50;99.90
27506;DHT22;14939;43.596;1.320;2023-01-29T07:22:54;2.50;99.90
27506;DHT22;14939;43.596;1.320;2023-01-29T07:25:20;2.50;99.90
27506;DHT22;14939;43.596;1.320;2023-01-29T07:27:46;2.50;99.90
27506;DHT22;14939;43.596;1.320;2023-01-29T07:30:13;2.50;99.90
27506;DHT22;14939;43.596;1.320;2023-01-29T07:32:39;2.50;99.90
27506;DHT22;14939;43.596;1.320;2023-01-29T07:35:05;2.50;99.90
27506;DHT22;14939;43.596;1.320;2023-01-29T07:37:31;2.50;99.90
27506;DHT22;14939;43.596;1.320;2023-01-29T07:39:57;2.50;99.90
27506;DHT22;14939;43.596;1.320;2023-01-29T07:42:23;2.50;99.90
27506;DHT22;14939;43.596;1.320;2023-01-29T07:44:48;2.50;99.90
27506;DHT22;14939;43.596;1.320;2023-01-29T07:47:14;2.60;99.90
27506;DHT22;14939;43.596;1.320;2023-01-29T07:49:40;2.60;99.90
27506;DHT22;14939;43.596;1.320;2023-01-29T07:52:05;2.60;99.90
27506;DHT22;14939;43.596;1.320;2023-01-29T07:54:31;2.60;99.90
27506;DHT22;14939;43.596;1.320;2023-01-29T07:56:57;2.60;99.90
27506;DHT22;14939;43.596;1.320;2023-01-29T07:59:22;2.60;99.90
27506;DHT22;14939;43.596;1.320;2023-01-29T08:01:48;2.60;99.90
27506;DHT22;14939;43.596;1.320;2023-01-29T08:04:14;2.60;99.90
27506;DHT22;14939;43.596;1.320;2023-01-29T08:06:40;2.60;99.90
27506;DHT22;14939;43.596;1.320;2023-01-29T08:09:05;2.60;99.90
27506;DHT22;14939;43.596;1.320;2023-01-29T08:11:33;2.70;99.90
27506;DHT22;14939;43.596;1.320;2023-01-29T08:13:58;2.70;99.90
27506;DHT22;14939;43.596;1.320;2023-01-29T08:16:24;2.70;99.90
27506;DHT22;14939;43.596;1.320;2023-01-29T08:18:50;2.70;99.90
27506;DHT22;14939;43.596;1.320;2023-01-29T08:21:15;2.70;99.90
27506;DHT22;14939;43.596;1.320;2023-01-29T08:23:41;2.70;99.90
27506;DHT22;14939;43.596;1.320;2023-01-29T08:26:07;2.80;99.90
27506;DHT22;14939;43.596;1.320;2023-01-29T08:28:33;2.80;99.90
27506;DHT22;14939;43.596;1.320;2023-01-29T08:30:59;2.80;99.90
27506;DHT22;14939;43.596;1.320;2023-01-29T08:33:26;2.90;99.90
27506;DHT22;14939;43.596;1.320;2023-01-29T08:35:53;2.90;99.90
27506;DHT22;14939;43.596;1.320;2023-01-29T08:38:19;2.90;99.90
27506;DHT22;14939;43.596;1.320;2023-01-29T08:40:45;3.00;99.90
27506;DHT22;14939;43.596;1.320;2023-01-29T08:43:12;3.00;99.90
27506;DHT22;14939;43.596;1.320;2023-01-29T08:45:40;3.10;99.90
27506;DHT22;14939;43.596;1.320;2023-01-29T08:48:07;3.10;99.90
27506;DHT22;14939;43.596;1.320;2023-01-29T08:50:34;3.20;99.90
27506;DHT22;14939;43.596;1.320;2023-01-29T08:53:01;3.20;99.90
27506;DHT22;14939;43.596;1.320;2023-01-29T08:55:28;3.20;99.90
27506;DHT22;14939;43.596;1.320;2023-01-29T08:57:54;3.20;99.90
27506;DHT22;14939;43.596;1.320;2023-01-29T09:00:22;3.30;99.90
27506;DHT22;14939;43.596;1.320;2023-01-29T09:02:47;3.40;99.90
27506;DHT22;14939;43.596;1.320;2023-01-29T09:05:13;3.40;99.90
27506;DHT22;14939;43.596;1.320;2023-01-29T09:07:39;3.40;99.90
27506;DHT22;14939;43.596;1.320;2023-01-29T09:10:05;3.40;99.90
27506;DHT22;14939;43.596;1.320;2023-01-29T09:12:30;3.50;99.90
27506;DHT22;14939;43.596;1.320;2023-01-29T09:14:56;3.60;99.90
27506;DHT22;14939;43.596;1.320;2023-01-29T09:17:22;3.60;99.90
27506;DHT22;14939;43.596;1.320;2023-01-29T09:19:48;3.70;99.90
27506;DHT22;14939;43.596;1.320;2023-01-29T09:22:13;3.70;99.90
27506;DHT22;14939;43.596;1.320;2023-01-29T09:24:39;3.80;99.90
27506;DHT22;14939;43.596;1.320;2023-01-29T09:27:05;3.90;99.90
27506;DHT22;14939;43.596;1.320;2023-01-29T09:29:31;4.00;99.90
27506;DHT22;14939;43.596;1.320;2023-01-29T09:31:56;4.00;99.90
27506;DHT22;14939;43.596;1.320;2023-01-29T09:34:22;4.00;99.90
27506;DHT22;14939;43.596;1.320;2023-01-29T09:36:47;4.00;99.90
27506;DHT22;14939;43.596;1.320;2023-01-29T09:39:13;4.10;99.90
27506;DHT22;14939;43.596;1.320;2023-01-29T09:41:51;4.20;99.90
27506;DHT22;14939;43.596;1.320;2023-01-29T09:47:35;4.30;99.90
27506;DHT22;14939;43.596;1.320;2023-01-29T09:52:40;4.30;99.90
27506;DHT22;14939;43.596;1.320;2023-01-29T09:55:21;4.40;99.90
27506;DHT22;14939;43.596;1.320;2023-01-29T09:57:58;4.40;99.90
27506;DHT22;14939;43.596;1.320;2023-01-29T10:03:09;4.50;99.90
27506;DHT22;14939;43.596;1.320;2023-01-29T10:11:53;4.70;99.90
27506;DHT22;14939;43.596;1.320;2023-01-29T10:19:51;5.20;99.90
27506;DHT22;14939;43.596;1.320;2023-01-29T10:25:01;5.10;99.90
27506;DHT22;14939;43.596;1.320;2023-01-29T10:27:32;5.20;99.90
27506;DHT22;14939;43.596;1.320;2023-01-29T10:30:01;5.20;99.90
27506;DHT22;14939;43.596;1.320;2023-01-29T10:32:28;5.20;99.90
27506;DHT22;14939;43.596;1.320;2023-01-29T10:34:58;5.30;99.90
27506;DHT22;14939;43.596;1.320;2023-01-29T10:37:41;5.40;99.90
27506;DHT22;14939;43.596;1.320;2023-01-29T10:40:21;5.60;99.90
27506;DHT22;14939;43.596;1.320;2023-01-29T10:48:02;5.40;99.90
27506;DHT22;14939;43.596;1.320;2023-01-29T10:50:54;5.50;99.90
27506;DHT22;14939;43.596;1.320;2023-01-29T10:58:53;5.50;99.90
27506;DHT22;14939;43.596;1.320;2023-01-29T11:01:20;5.50;99.90
27506;DHT22;14939;43.596;1.320;2023-01-29T11:04:01;5.50;99.90
27506;DHT22;14939;43.596;1.320;2023-01-29T11:06:35;5.70;99.90
27506;DHT22;14939;43.596;1.320;2023-01-29T11:11:35;5.70;99.90
27506;DHT22;14939;43.596;1.320;2023-01-29T11:14:07;5.80;99.90
27506;DHT22;14939;43.596;1.320;2023-01-29T11:16:46;5.80;99.90
27506;DHT22;14939;43.596;1.320;2023-01-29T11:19:13;5.70;99.90
27506;DHT22;14939;43.596;1.320;2023-01-29T11:21:59;5.70;99.90
27506;DHT22;14939;43.596;1.320;2023-01-29T11:24:26;5.70;99.90
27506;DHT22;14939;43.596;1.320;2023-01-29T11:26:54;5.60;99.90
27506;DHT22;14939;43.596;1.320;2023-01-29T11:29:40;5.30;99.90
27506;DHT22;14939;43.596;1.320;2023-01-29T11:34:59;5.30;99.90
27506;DHT22;14939;43.596;1.320;2023-01-29T11:37:36;5.30;99.90
27506;DHT22;14939;43.596;1.320;2023-01-29T11:42:45;5.20;99.90
27506;DHT22;14939;43.596;1.320;2023-01-29T11:45:28;5.20;99.90
27506;DHT22;14939;43.596;1.320;2023-01-29T11:47:57;5.30;99.90
27506;DHT22;14939;43.596;1.320;2023-01-29T11:50:30;5.30;99.90
27506;DHT22;14939;43.596;1.320;2023-01-29T11:53:00;5.10;99.90
27506;DHT22;14939;43.596;1.320;2023-01-29T11:55:31;5.10;99.90
27506;DHT22;14939;43.596;1.320;2023-01-29T12:00:26;5.50;99.90
27506;DHT22;14939;43.596;1.320;2023-01-29T12:03:02;5.60;99.90
27506;DHT22;14939;43.596;1.320;2023-01-29T12:05:29;5.90;99.90
27506;DHT22;14939;43.596;1.320;2023-01-29T12:07:59;6.20;99.90
27506;DHT22;14939;43.596;1.320;2023-01-29T12:10:40;6.60;99.90
27506;DHT22;14939;43.596;1.320;2023-01-29T12:15:43;6.70;99.90
27506;DHT22;14939;43.596;1.320;2023-01-29T12:20:58;6.60;99.90
27506;DHT22;14939;43.596;1.320;2023-01-29T12:23:31;6.60;99.90
27506;DHT22;14939;43.596;1.320;2023-01-29T12:26:12;6.40;99.90
27506;DHT22;14939;43.596;1.320;2023-01-29T12:39:36;6.30;99.90
27506;DHT22;14939;43.596;1.320;2023-01-29T12:42:07;6.30;99.90
27506;DHT22;14939;43.596;1.320;2023-01-29T12:47:17;6.60;99.90
27506;DHT22;14939;43.596;1.320;2023-01-29T12:49:49;6.60;99.90
27506;DHT22;14939;43.596;1.320;2023-01-29T12:52:40;6.70;99.90
27506;DHT22;14939;43.596;1.320;2023-01-29T12:55:49;6.90;99.90
27506;DHT22;14939;43.596;1.320;2023-01-29T12:58:29;7.00;99.90
27506;DHT22;14939;43.596;1.320;2023-01-29T13:01:04;6.60;99.90
27506;DHT22;14939;43.596;1.320;2023-01-29T13:06:29;6.30;99.90
27506;DHT22;14939;43.596;1.320;2023-01-29T13:09:06;6.30;99.90
27506;DHT22;14939;43.596;1.320;2023-01-29T13:11:44;6.40;99.90
27506;DHT22;14939;43.596;1.320;2023-01-29T13:14:20;6.40;99.90
27506;DHT22;14939;43.596;1.320;2023-01-29T13:16:52;6.30;99.90
27506;DHT22;14939;43.596;1.320;2023-01-29T13:21:53;6.50;99.90
27506;DHT22;14939;43.596;1.320;2023-01-29T13:24:23;6.30;99.90
27506;DHT22;14939;43.596;1.320;2023-01-29T13:26:49;6.30;99.90
27506;DHT22;14939;43.596;1.320;2023-01-29T13:29:23;6.30;99.90
27506;DHT22;14939;43.596;1.320;2023-01-29T13:31:51;6.30;99.90
27506;DHT22;14939;43.596;1.320;2023-01-29T13:34:30;6.30;99.90
27506;DHT22;14939;43.596;1.320;2023-01-29T13:37:00;6.30;99.90
27506;DHT22;14939;43.596;1.320;2023-01-29T13:39:33;6.50;99.60
27506;DHT22;14939;43.596;1.320;2023-01-29T13:42:13;6.60;98.80
27506;DHT22;14939;43.596;1.320;2023-01-29T13:44:39;6.30;99.30
27506;DHT22;14939;43.596;1.320;2023-01-29T13:47:10;6.30;99.90
27506;DHT22;14939;43.596;1.320;2023-01-29T13:50:08;6.30;99.70
27506;DHT22;14939;43.596;1.320;2023-01-29T14:10:41;5.90;99.90
27506;DHT22;14939;43.596;1.320;2023-01-29T14:18:26;5.80;99.90
27506;DHT22;14939;43.596;1.320;2023-01-29T14:21:00;5.80;99.90
27506;DHT22;14939;43.596;1.320;2023-01-29T14:23:44;6.00;99.90
27506;DHT22;14939;43.596;1.320;2023-01-29T14:26:32;6.00;99.60
27506;DHT22;14939;43.596;1.320;2023-01-29T14:31:42;6.00;99.50
27506;DHT22;14939;43.596;1.320;2023-01-29T14:37:24;5.90;99.90
27506;DHT22;14939;43.596;1.320;2023-01-29T14:39:48;5.90;99.90
27506;DHT22;14939;43.596;1.320;2023-01-29T14:45:19;5.70;99.90
27506;DHT22;14939;43.596;1.320;2023-01-29T14:55:40;5.70;99.30
27506;DHT22;14939;43.596;1.320;2023-01-29T15:00:51;5.70;99.10
27506;DHT22;14939;43.596;1.320;2023-01-29T15:03:43;5.70;99.10
27506;DHT22;14939;43.596;1.320;2023-01-29T15:06:16;5.60;98.90
27506;DHT22;14939;43.596;1.320;2023-01-29T15:08:52;5.70;99.20
27506;DHT22;14939;43.596;1.320;2023-01-29T15:11:51;5.60;98.70
27506;DHT22;14939;43.596;1.320;2023-01-29T15:19:35;5.50;98.30
27506;DHT22;14939;43.596;1.320;2023-01-29T15:22:13;5.50;98.80
27506;DHT22;14939;43.596;1.320;2023-01-29T15:24:41;5.60;98.70
27506;DHT22;14939;43.596;1.320;2023-01-29T15:27:17;5.60;99.00
27506;DHT22;14939;43.596;1.320;2023-01-29T15:29:51;5.60;99.10
27506;DHT22;14939;43.596;1.320;2023-01-29T15:32:36;5.80;99.20
27506;DHT22;14939;43.596;1.320;2023-01-29T15:35:10;5.80;99.20
27506;DHT22;14939;43.596;1.320;2023-01-29T15:37:37;5.80;98.80
27506;DHT22;14939;43.596;1.320;2023-01-29T15:40:05;5.80;98.60
27506;DHT22;14939;43.596;1.320;2023-01-29T15:42:45;5.70;98.70
27506;DHT22;14939;43.596;1.320;2023-01-29T15:45:29;5.70;98.50
27506;DHT22;14939;43.596;1.320;2023-01-29T15:48:17;5.80;98.50
27506;DHT22;14939;43.596;1.320;2023-01-29T15:50:44;5.80;98.70
27506;DHT22;14939;43.596;1.320;2023-01-29T15:53:21;5.80;99.00
27506;DHT22;14939;43.596;1.320;2023-01-29T15:55:48;5.70;97.80
27506;DHT22;14939;43.596;1.320;2023-01-29T15:58:23;5.60;98.30
27506;DHT22;14939;43.596;1.320;2023-01-29T16:00:54;5.50;97.80
27506;DHT22;14939;43.596;1.320;2023-01-29T16:03:22;5.50;97.70
27506;DHT22;14939;43.596;1.320;2023-01-29T16:05:50;5.50;98.20
27506;DHT22;14939;43.596;1.320;2023-01-29T16:08:17;5.40;98.70
27506;DHT22;14939;43.596;1.320;2023-01-29T16:10:47;5.40;98.30
27506;DHT22;14939;43.596;1.320;2023-01-29T16:13:22;5.40;97.90
27506;DHT22;14939;43.596;1.320;2023-01-29T16:16:00;5.30;98.40
27506;DHT22;14939;43.596;1.320;2023-01-29T16:18:36;5.40;98.40
27506;DHT22;14939;43.596;1.320;2023-01-29T16:21:05;5.30;98.20
27506;DHT22;14939;43.596;1.320;2023-01-29T16:23:41;5.30;98.10
27506;DHT22;14939;43.596;1.320;2023-01-29T16:26:14;5.20;98.30
27506;DHT22;14939;43.596;1.320;2023-01-29T16:28:42;5.20;98.90
27506;DHT22;14939;43.596;1.320;2023-01-29T16:31:09;5.10;98.90
27506;DHT22;14939;43.596;1.320;2023-01-29T16:33:37;5.10;99.40
27506;DHT22;14939;43.596;1.320;2023-01-29T16:36:12;5.10;99.30
27506;DHT22;14939;43.596;1.320;2023-01-29T16:38:40;5.10;99.40
27506;DHT22;14939;43.596;1.320;2023-01-29T16:43:44;5.10;99.90
27506;DHT22;14939;43.596;1.320;2023-01-29T16:46:37;5.00;99.90
27506;DHT22;14939;43.596;1.320;2023-01-29T16:51:50;5.00;99.90
27506;DHT22;14939;43.596;1.320;2023-01-29T16:54:20;4.90;99.90
27506;DHT22;14939;43.596;1.320;2023-01-29T16:56:58;4.90;99.90
27506;DHT22;14939;43.596;1.320;2023-01-29T16:59:31;4.90;99.90
27506;DHT22;14939;43.596;1.320;2023-01-29T17:01:58;4.90;99.90
27506;DHT22;14939;43.596;1.320;2023-01-29T17:04:23;4.80;99.90
27506;DHT22;14939;43.596;1.320;2023-01-29T17:06:54;4.90;99.90
27506;DHT22;14939;43.596;1.320;2023-01-29T17:11:47;4.80;99.90
27506;DHT22;14939;43.596;1.320;2023-01-29T17:14:18;4.70;99.90
27506;DHT22;14939;43.596;1.320;2023-01-29T17:19:19;4.70;99.90
27506;DHT22;14939;43.596;1.320;2023-01-29T17:21:45;4.70;99.70
27506;DHT22;14939;43.596;1.320;2023-01-29T17:24:11;4.70;99.40
27506;DHT22;14939;43.596;1.320;2023-01-29T17:26:37;4.70;99.90
27506;DHT22;14939;43.596;1.320;2023-01-29T17:29:03;4.60;99.80
27506;DHT22;14939;43.596;1.320;2023-01-29T17:31:29;4.60;99.90
27506;DHT22;14939;43.596;1.320;2023-01-29T17:33:55;4.60;99.50
27506;DHT22;14939;43.596;1.320;2023-01-29T17:36:21;4.60;99.20
27506;DHT22;14939;43.596;1.320;2023-01-29T17:38:46;4.60;99.10
27506;DHT22;14939;43.596;1.320;2023-01-29T17:43:43;4.60;99.40
27506;DHT22;14939;43.596;1.320;2023-01-29T17:46:15;4.60;99.60
27506;DHT22;14939;43.596;1.320;2023-01-29T17:48:41;4.60;99.30
27506;DHT22;14939;43.596;1.320;2023-01-29T17:51:12;4.60;99.40
27506;DHT22;14939;43.596;1.320;2023-01-29T17:53:39;4.60;99.10
27506;DHT22;14939;43.596;1.320;2023-01-29T17:56:05;4.60;99.60
27506;DHT22;14939;43.596;1.320;2023-01-29T17:58:31;4.50;99.60
27506;DHT22;14939;43.596;1.320;2023-01-29T18:00:57;4.50;99.70
27506;DHT22;14939;43.596;1.320;2023-01-29T18:03:22;4.60;99.90
27506;DHT22;14939;43.596;1.320;2023-01-29T18:05:49;4.60;99.90
27506;DHT22;14939;43.596;1.320;2023-01-29T18:08:18;4.50;99.90
27506;DHT22;14939;43.596;1.320;2023-01-29T18:10:45;4.50;99.90
27506;DHT22;14939;43.596;1.320;2023-01-29T18:13:11;4.50;99.90
27506;DHT22;14939;43.596;1.320;2023-01-29T18:15:37;4.50;99.90
27506;DHT22;14939;43.596;1.320;2023-01-29T18:18:04;4.50;99.90
27506;DHT22;14939;43.596;1.320;2023-01-29T18:20:31;4.40;99.90
27506;DHT22;14939;43.596;1.320;2023-01-29T18:23:02;4.50;99.90
27506;DHT22;14939;43.596;1.320;2023-01-29T18:25:29;4.40;99.90
27506;DHT22;14939;43.596;1.320;2023-01-29T18:27:55;4.40;99.90
27506;DHT22;14939;43.596;1.320;2023-01-29T18:30:20;4.40;99.90
27506;DHT22;14939;43.596;1.320;2023-01-29T18:32:46;4.40;99.90
27506;DHT22;14939;43.596;1.320;2023-01-29T18:35:13;4.40;99.90
27506;DHT22;14939;43.596;1.320;2023-01-29T18:37:38;4.40;99.90
27506;DHT22;14939;43.596;1.320;2023-01-29T18:40:04;4.40;99.90
27506;DHT22;14939;43.596;1.320;2023-01-29T18:42:31;4.40;99.90
27506;DHT22;14939;43.596;1.320;2023-01-29T18:44:58;4.40;99.90
27506;DHT22;14939;43.596;1.320;2023-01-29T18:47:23;4.40;99.90
27506;DHT22;14939;43.596;1.320;2023-01-29T18:49:49;4.40;99.90
27506;DHT22;14939;43.596;1.320;2023-01-29T18:52:17;4.40;99.90
27506;DHT22;14939;43.596;1.320;2023-01-29T18:54:42;4.40;99.90
27506;DHT22;14939;43.596;1.320;2023-01-29T18:57:08;4.40;99.90
27506;DHT22;14939;43.596;1.320;2023-01-29T18:59:34;4.40;99.90
27506;DHT22;14939;43.596;1.320;2023-01-29T19:02:00;4.40;99.90
27506;DHT22;14939;43.596;1.320;2023-01-29T19:04:25;4.40;99.90